createdAt,value
2023-04-22T00:02:42.986Z,0
2023-04-22T00:07:49.065Z,0
2023-04-22T00:12:55.152Z,0
2023-04-22T00:18:01.251Z,0
2023-04-22T00:23:07.338Z,0
2023-04-22T00:28:13.421Z,0
2023-04-22T00:33:19.513Z,0
2023-04-22T00:38:24.615Z,0
2023-04-22T00:43:30.708Z,0
2023-04-22T00:48:36.801Z,0
2023-04-22T00:53:42.889Z,0
2023-04-22T00:58:48.975Z,0
2023-04-22T01:03:55.061Z,0
2023-04-22T01:09:01.156Z,0
2023-04-22T01:14:07.248Z,0
2023-04-22T01:19:13.350Z,0
2023-04-22T01:24:19.429Z,0
2023-04-22T01:29:25.549Z,0
2023-04-22T01:34:31.607Z,0
2023-04-22T01:39:37.676Z,0
2023-04-22T01:44:43.784Z,0
2023-04-22T01:49:49.872Z,0
2023-04-22T01:54:55.971Z,0
2023-04-22T02:00:02.067Z,0
2023-04-22T02:05:08.150Z,0
2023-04-22T02:10:14.239Z,0
2023-04-22T02:15:20.320Z,0
2023-04-22T02:20:26.412Z,0
2023-04-22T02:25:32.524Z,0
2023-04-22T02:30:38.617Z,0
2023-04-22T02:35:44.689Z,0
2023-04-22T02:40:50.814Z,0
2023-04-22T02:45:55.885Z,0
2023-04-22T02:51:01.973Z,0
2023-04-22T02:56:07.093Z,0
2023-04-22T03:01:13.178Z,0
2023-04-22T03:06:19.263Z,0
2023-04-22T03:11:25.348Z,0
2023-04-22T03:16:31.450Z,0
2023-04-22T03:21:37.526Z,0
2023-04-22T03:26:43.620Z,0
2023-04-22T03:31:49.737Z,0
2023-04-22T03:42:01.886Z,0
2023-04-22T03:47:07.984Z,0
2023-04-22T03:52:14.073Z,4
2023-04-22T03:57:20.169Z,4
2023-04-22T04:02:26.246Z,4
2023-04-22T04:07:32.345Z,8
2023-04-22T04:12:38.460Z,12
2023-04-22T04:17:44.535Z,12
2023-04-22T04:22:50.603Z,20
2023-04-22T04:27:56.703Z,24
2023-04-22T04:33:02.778Z,28
2023-04-22T04:38:08.873Z,32
2023-04-22T04:43:14.966Z,32
2023-04-22T04:48:21.063Z,36
2023-04-22T04:53:26.171Z,40
2023-04-22T04:58:32.256Z,44
2023-04-22T05:03:38.360Z,44
2023-04-22T05:08:44.440Z,48
2023-04-22T05:13:50.566Z,52
2023-04-22T05:18:56.625Z,52
2023-04-22T05:24:02.713Z,52
2023-04-22T05:29:08.802Z,60
2023-04-22T05:34:14.944Z,60
2023-04-22T05:39:20.997Z,60
2023-04-22T05:44:26.209Z,64
2023-04-22T05:49:32.192Z,64
2023-04-22T05:54:38.281Z,68
2023-04-22T05:59:44.369Z,68
2023-04-22T06:04:50.464Z,68
2023-04-22T06:09:56.549Z,72
2023-04-22T06:15:02.891Z,76
2023-04-22T06:20:08.896Z,76
2023-04-22T06:25:14.973Z,76
2023-04-22T06:30:21.108Z,80
2023-04-22T06:35:27.099Z,80
2023-04-22T06:40:33.216Z,84
2023-04-22T06:45:39.385Z,84
2023-04-22T06:50:45.462Z,88
2023-04-22T06:55:50.450Z,84
2023-04-22T07:00:56.634Z,88
2023-04-22T07:06:02.630Z,84
2023-04-22T07:11:08.681Z,92
2023-04-22T07:16:14.905Z,92
2023-04-22T07:21:20.948Z,96
2023-04-22T07:26:26.929Z,96
2023-04-22T07:31:33.051Z,100
2023-04-22T07:36:39.135Z,104
2023-04-22T07:41:45.190Z,104
2023-04-22T07:46:51.256Z,104
2023-04-22T07:51:57.424Z,108
2023-04-22T07:57:03.484Z,112
2023-04-22T08:02:09.583Z,112
2023-04-22T08:07:15.659Z,112
2023-04-22T08:12:21.808Z,116
2023-04-22T08:17:27.835Z,116
2023-04-22T08:22:33.904Z,120
2023-04-22T08:27:40.116Z,120
2023-04-22T08:32:46.181Z,124
2023-04-22T08:37:52.286Z,128
2023-04-22T08:42:58.339Z,132
2023-04-22T08:48:04.358Z,128
2023-04-22T08:53:10.429Z,132
2023-04-22T08:58:16.531Z,136
2023-04-22T09:03:22.724Z,136
2023-04-22T09:08:28.785Z,140
2023-04-22T09:13:34.828Z,140
2023-04-22T09:18:41.095Z,144
2023-04-22T09:23:47.062Z,148
2023-04-22T09:28:53.089Z,148
2023-04-22T09:33:59.277Z,152
2023-04-22T09:39:05.233Z,152
2023-04-22T09:44:11.468Z,156
2023-04-22T09:49:17.420Z,160
2023-04-22T09:54:23.535Z,160
2023-04-22T09:59:29.668Z,160
2023-04-22T10:04:35.841Z,164
2023-04-22T10:09:41.907Z,164
2023-04-22T10:14:48.092Z,164
2023-04-22T10:19:54.235Z,168
2023-04-22T10:25:00.374Z,184
2023-04-22T10:30:06.508Z,196
2023-04-22T10:35:12.663Z,204
2023-04-22T10:40:18.806Z,204
2023-04-22T10:45:24.960Z,208
2023-04-22T10:50:31.252Z,204
2023-04-22T10:55:37.292Z,212
2023-04-22T11:00:43.430Z,212
2023-04-22T11:05:49.663Z,216
2023-04-22T11:10:55.874Z,220
2023-04-22T11:16:02.174Z,228
2023-04-22T11:21:08.382Z,224
2023-04-22T11:26:14.640Z,228
2023-04-22T11:31:20.903Z,232
2023-04-22T11:36:27.163Z,232
2023-04-22T11:41:33.451Z,236
2023-04-22T11:46:39.885Z,248
2023-04-22T11:51:46.071Z,256
2023-04-22T11:56:52.223Z,260
2023-04-22T12:01:58.645Z,260
2023-04-22T12:07:04.842Z,260
2023-04-22T12:12:11.008Z,268
2023-04-22T12:17:17.599Z,276
2023-04-22T12:22:23.952Z,264
2023-04-22T12:27:30.540Z,276
2023-04-22T12:32:37.000Z,296
2023-04-22T12:37:43.518Z,304
2023-04-22T12:42:50.050Z,304
2023-04-22T12:47:56.310Z,296
2023-04-22T12:53:02.770Z,304
2023-04-22T12:58:09.251Z,328
2023-04-22T13:03:15.734Z,336
2023-04-22T13:08:22.253Z,328
2023-04-22T13:13:28.703Z,340
2023-04-22T13:18:35.129Z,380
2023-04-22T13:23:42.144Z,468
2023-04-22T13:28:49.147Z,520
2023-04-22T13:33:56.175Z,720
2023-04-22T13:39:03.160Z,1572
2023-04-22T13:44:10.153Z,2916
2023-04-22T13:49:17.216Z,2168
2023-04-22T13:54:24.164Z,1732
2023-04-22T13:59:31.263Z,2400
2023-04-22T14:04:38.219Z,3492
2023-04-22T14:09:45.237Z,4648
2023-04-22T14:14:52.208Z,6196
2023-04-22T14:19:59.196Z,4844
2023-04-22T14:25:06.232Z,3572
2023-04-22T14:30:14.089Z,2904
2023-04-22T14:35:21.871Z,2388
2023-04-22T14:40:29.703Z,3492
2023-04-22T14:45:37.593Z,2452
2023-04-22T14:50:45.416Z,3624
2023-04-22T14:55:53.220Z,3416
2023-04-22T15:01:01.086Z,3136
2023-04-22T15:06:08.907Z,1520
2023-04-22T15:11:15.177Z,784
2023-04-22T15:16:21.289Z,700
2023-04-22T15:21:27.463Z,576
2023-04-22T15:26:33.596Z,460
2023-04-22T15:31:39.788Z,420
2023-04-22T15:36:45.887Z,352
2023-04-22T15:41:52.115Z,320
2023-04-22T15:46:57.202Z,292
2023-04-22T15:52:03.302Z,284
2023-04-22T15:57:09.391Z,244
2023-04-22T16:02:15.465Z,176
2023-04-22T16:07:21.560Z,212
2023-04-22T16:12:27.652Z,220
2023-04-22T16:17:33.803Z,204
2023-04-22T16:22:39.868Z,196
2023-04-22T16:27:45.923Z,164
2023-04-22T16:32:52.134Z,160
2023-04-22T16:37:58.100Z,128
2023-04-22T16:43:04.188Z,116
2023-04-22T16:48:10.342Z,96
2023-04-22T16:53:16.511Z,108
2023-04-22T16:58:22.464Z,100
2023-04-22T17:03:28.630Z,64
2023-04-22T17:08:34.695Z,52
2023-04-22T17:13:39.784Z,48
2023-04-22T17:18:45.925Z,40
2023-04-22T17:23:51.963Z,32
2023-04-22T17:28:58.060Z,28
2023-04-22T17:34:04.197Z,28
2023-04-22T17:39:10.267Z,24
2023-04-22T17:44:16.277Z,20
2023-04-22T17:49:22.526Z,16
2023-04-22T17:54:28.537Z,12
2023-04-22T17:59:34.686Z,8
2023-04-22T18:04:40.662Z,4
2023-04-22T18:09:46.854Z,4
2023-04-22T18:14:52.817Z,4
2023-04-22T18:19:58.957Z,0
2023-04-22T18:25:05.071Z,0
2023-04-22T18:30:11.150Z,0
2023-04-22T18:35:17.257Z,0
2023-04-22T18:40:23.411Z,0
2023-04-22T18:45:29.458Z,0
2023-04-22T18:50:35.446Z,0
2023-04-22T18:55:41.577Z,0
2023-04-22T19:00:47.626Z,0
2023-04-22T19:05:53.720Z,0
2023-04-22T19:10:59.804Z,0
2023-04-22T19:16:04.920Z,0
2023-04-22T19:21:11.012Z,0
2023-04-22T19:26:17.104Z,0
2023-04-22T19:31:23.235Z,0
2023-04-22T19:36:29.321Z,0
2023-04-22T19:41:35.370Z,0
2023-04-22T19:46:41.483Z,0
2023-04-22T19:51:47.575Z,0
2023-04-22T19:56:53.653Z,0
2023-04-22T20:01:59.728Z,0
2023-04-22T20:07:05.823Z,0
2023-04-22T20:12:11.912Z,0
2023-04-22T20:17:17.998Z,0
2023-04-22T20:22:24.096Z,0
2023-04-22T20:27:30.204Z,0
2023-04-22T20:32:36.342Z,0
2023-04-22T20:37:42.381Z,0
2023-04-22T20:42:48.453Z,0
2023-04-22T20:47:54.561Z,0
2023-04-22T20:53:00.724Z,0
2023-04-22T20:58:06.724Z,0
2023-04-22T21:03:12.809Z,0
2023-04-22T21:08:18.895Z,0
2023-04-22T21:13:24.991Z,0
2023-04-22T21:18:31.097Z,0
2023-04-22T21:23:37.239Z,0
2023-04-22T21:28:43.449Z,0
2023-04-22T21:33:49.528Z,0
2023-04-22T21:38:55.733Z,0
2023-04-22T21:44:01.872Z,0
2023-04-22T21:49:07.983Z,0
2023-04-22T21:54:14.228Z,0
2023-04-22T21:59:20.316Z,0
2023-04-22T22:04:26.498Z,0
2023-04-22T22:09:32.598Z,0
2023-04-22T22:14:38.917Z,0
2023-04-22T22:19:44.999Z,0
2023-04-22T22:24:51.120Z,0
2023-04-22T22:29:57.321Z,0
2023-04-22T22:35:03.590Z,0
2023-04-22T22:40:09.857Z,0
2023-04-22T22:45:16.117Z,0
2023-04-22T22:50:22.373Z,0
2023-04-22T22:55:28.640Z,0
2023-04-22T23:00:34.902Z,0
2023-04-22T23:05:41.260Z,0
2023-04-22T23:10:47.434Z,0
2023-04-22T23:15:53.699Z,0
2023-04-22T23:20:59.957Z,0
2023-04-22T23:26:06.278Z,0
2023-04-22T23:31:11.470Z,0
2023-04-22T23:36:17.552Z,0
2023-04-22T23:41:23.644Z,0
2023-04-22T23:46:29.741Z,0
2023-04-22T23:51:35.830Z,0
2023-04-22T23:56:41.917Z,0
